Time;durP1;ratioP1;P1;durP2;ratioP2;P2;SDS_P1;SDS_P2;PMS_P1;PMS_P2;Temp;Humidity;BMP_temperature;BMP_pressure;BME280_temperature;BME280_humidity;BME280_pressure;Samples;Min_cycle;Max_cycle;Signal;HPM_P1;HPM_P2
2021/08/13 00:01:02;;;;;;;7.70;6.07;;;20.20;1.00;;;;;;4972658;28;20222;-88
2021/08/13 00:03:28;;;;;;;7.90;5.70;;;20.10;1.00;;;;;;4978227;28;20205;-88
2021/08/13 00:05:54;;;;;;;9.03;5.70;;;20.10;1.00;;;;;;4976078;28;20216;-88
2021/08/13 00:08:20;;;;;;;7.47;5.77;;;;;;;;;;4974806;28;20220;-89
2021/08/13 00:10:45;;;;;;;6.80;6.10;;;20.10;1.00;;;;;;4977101;28;20267;-88
2021/08/13 00:13:11;;;;;;;10.77;6.20;;;20.10;1.00;;;;;;4971560;28;20264;-88
2021/08/13 00:15:37;;;;;;;10.27;6.17;;;20.00;1.00;;;;;;4977766;28;20250;-88
2021/08/13 00:18:03;;;;;;;7.40;5.83;;;19.90;1.00;;;;;;4976020;28;20788;-89
2021/08/13 00:20:28;;;;;;;6.93;5.53;;;19.90;1.00;;;;;;4977056;28;20899;-88
2021/08/13 00:22:54;;;;;;;7.30;5.70;;;19.90;1.00;;;;;;4975274;28;20196;-88
2021/08/13 00:25:20;;;;;;;15.83;6.70;;;19.90;1.00;;;;;;4977506;28;20196;-88
2021/08/13 00:27:46;;;;;;;9.13;5.33;;;19.70;1.00;;;;;;4975903;28;20212;-88
2021/08/13 00:30:12;;;;;;;7.63;5.93;;;19.60;1.00;;;;;;4977980;28;20558;-88
2021/08/13 00:32:38;;;;;;;8.00;6.03;;;19.60;1.00;;;;;;4976251;28;20214;-88
2021/08/13 00:35:05;;;;;;;10.47;5.60;;;19.50;1.00;;;;;;4978290;28;20192;-88
2021/08/13 00:37:31;;;;;;;8.97;5.63;;;19.50;1.00;;;;;;4980137;28;20556;-89
2021/08/13 00:39:57;;;;;;;7.10;6.20;;;19.50;1.00;;;;;;4977729;28;20190;-89
2021/08/13 00:42:23;;;;;;;6.97;5.90;;;19.40;1.00;;;;;;4995036;28;20189;-89
2021/08/13 00:44:49;;;;;;;8.50;5.90;;;19.50;1.00;;;;;;4982494;28;20197;-89
2021/08/13 00:47:15;;;;;;;8.33;6.30;;;19.50;1.00;;;;;;4980601;28;20214;-89
2021/08/13 00:49:41;;;;;;;8.93;5.53;;;19.40;1.00;;;;;;4983090;28;20589;-89
2021/08/13 00:52:06;;;;;;;11.10;5.63;;;19.30;1.00;;;;;;4975298;28;20631;-89
2021/08/13 00:54:32;;;;;;;7.60;5.57;;;19.30;1.00;;;;;;4984541;28;20567;-89
2021/08/13 00:56:58;;;;;;;8.83;5.33;;;19.30;1.00;;;;;;4978209;28;20194;-89
2021/08/13 00:59:24;;;;;;;7.57;5.57;;;;;;;;;;4981376;28;20298;-89
2021/08/13 01:01:50;;;;;;;7.93;5.53;;;19.30;1.00;;;;;;4980081;28;20342;-89
2021/08/13 01:04:15;;;;;;;7.23;5.73;;;19.50;1.00;;;;;;4980145;28;20242;-88
2021/08/13 01:06:41;;;;;;;8.47;5.70;;;19.50;1.00;;;;;;4980730;28;20201;-89
2021/08/13 01:09:07;;;;;;;8.73;6.00;;;19.50;1.00;;;;;;4981763;28;20222;-88
2021/08/13 01:11:42;;;;;;;9.40;6.10;;;19.40;1.00;;;;;;4993072;28;20283;-88
2021/08/13 01:14:26;;;;;;;9.10;5.77;;;19.40;1.00;;;;;;4979447;28;20239;-89
2021/08/13 01:16:54;;;;;;;6.97;5.50;;;19.40;1.00;;;;;;4978873;28;20190;-88
2021/08/13 01:19:42;;;;;;;8.87;5.83;;;19.60;1.00;;;;;;4980618;28;20189;-88
2021/08/13 01:22:21;;;;;;;8.47;5.97;;;19.40;1.00;;;;;;4970046;28;20301;-88
2021/08/13 01:24:47;;;;;;;8.63;6.07;;;19.50;1.00;;;;;;4976056;28;20205;-89
2021/08/13 01:27:17;;;;;;;7.47;5.73;;;19.40;1.00;;;;;;4980748;28;20191;-88
2021/08/13 01:30:03;;;;;;;8.00;5.73;;;19.40;1.00;;;;;;4978437;28;20251;-88
2021/08/13 01:32:35;;;;;;;7.70;5.30;;;19.40;1.00;;;;;;4980416;28;20199;-88
2021/08/13 01:35:15;;;;;;;7.73;6.03;;;19.50;1.00;;;;;;4980142;28;20392;-88
2021/08/13 01:37:45;;;;;;;8.40;5.43;;;19.40;1.00;;;;;;4980775;28;20280;-89
2021/08/13 01:40:13;;;;;;;7.07;5.70;;;19.30;1.00;;;;;;4994903;28;20197;-88
2021/08/13 01:42:40;;;;;;;6.00;5.30;;;19.30;1.00;;;;;;4977311;28;20203;-88
2021/08/13 01:45:07;;;;;;;8.50;6.00;;;19.30;1.00;;;;;;4981384;28;20265;-88
2021/08/13 01:47:34;;;;;;;7.50;5.63;;;19.20;1.00;;;;;;4976680;28;20203;-88
2021/08/13 01:50:00;;;;;;;7.43;5.67;;;19.30;1.00;;;;;;4978693;28;20269;-88
2021/08/13 01:52:26;;;;;;;6.87;5.60;;;19.40;1.00;;;;;;4981500;28;20272;-88
2021/08/13 01:54:54;;;;;;;7.27;5.73;;;19.40;1.00;;;;;;4982198;28;20193;-89
2021/08/13 01:57:21;;;;;;;9.03;5.87;;;19.40;1.00;;;;;;4981191;28;20198;-89
2021/08/13 01:59:49;;;;;;;7.20;6.00;;;19.30;1.00;;;;;;4982831;28;20278;-88
2021/08/13 02:02:15;;;;;;;9.00;5.83;;;;;;;;;;4976518;28;20209;-88
2021/08/13 02:04:42;;;;;;;7.87;6.60;;;19.10;1.00;;;;;;4972188;28;20207;-89
2021/08/13 02:07:11;;;;;;;10.40;5.27;;;19.10;1.00;;;;;;4975957;28;20265;-88
2021/08/13 02:09:37;;;;;;;7.97;5.90;;;19.00;1.00;;;;;;4973889;28;20218;-88
2021/08/13 02:12:03;;;;;;;7.13;5.83;;;19.00;1.00;;;;;;4977987;28;20200;-88
2021/08/13 02:14:29;;;;;;;7.37;5.47;;;18.90;1.00;;;;;;4977270;28;20200;-89
2021/08/13 02:16:56;;;;;;;8.20;5.93;;;18.90;1.00;;;;;;4977083;28;20200;-88
2021/08/13 02:19:41;;;;;;;9.23;5.67;;;19.00;1.00;;;;;;4977901;28;20656;-88
2021/08/13 02:22:07;;;;;;;10.37;6.20;;;19.10;1.00;;;;;;4978273;28;20208;-88
2021/08/13 02:24:33;;;;;;;7.17;5.77;;;19.10;1.00;;;;;;4977254;28;20215;-89
2021/08/13 02:27:00;;;;;;;9.30;6.47;;;19.10;1.00;;;;;;4984736;28;20207;-88
2021/08/13 02:29:27;;;;;;;11.30;6.50;;;18.90;1.00;;;;;;4974306;28;20219;-88
2021/08/13 02:31:53;;;;;;;11.20;6.53;;;18.90;1.00;;;;;;4976542;28;20198;-88
2021/08/13 02:34:18;;;;;;;10.00;7.10;;;18.90;1.00;;;;;;4977050;28;20200;-88
2021/08/13 02:37:04;;;;;;;9.20;6.47;;;18.90;1.00;;;;;;4980326;28;20188;-88
2021/08/13 02:39:43;;;;;;;8.07;6.47;;;18.90;1.00;;;;;;4972831;28;20201;-89
2021/08/13 02:42:12;;;;;;;7.60;6.37;;;18.80;1.00;;;;;;4976778;28;20786;-88
2021/08/13 02:44:40;;;;;;;8.33;6.60;;;18.80;1.00;;;;;;4980964;28;20196;-89
2021/08/13 02:47:09;;;;;;;7.07;5.90;;;18.80;1.00;;;;;;4973515;28;20229;-89
2021/08/13 02:49:41;;;;;;;9.57;6.57;;;18.80;1.00;;;;;;4978379;28;20221;-89
2021/08/13 02:52:08;;;;;;;9.70;6.13;;;18.80;1.00;;;;;;4979531;28;20208;-89
2021/08/13 02:54:36;;;;;;;10.90;6.67;;;18.80;1.00;;;;;;4994307;28;20201;-89
2021/08/13 02:57:04;;;;;;;8.40;6.60;;;18.90;1.00;;;;;;4975066;28;20201;-88
2021/08/13 02:59:32;;;;;;;7.97;5.83;;;18.90;1.00;;;;;;4981448;28;20194;-88
2021/08/13 03:02:00;;;;;;;11.87;6.27;;;18.80;1.00;;;;;;4976610;28;20189;-88
2021/08/13 03:04:30;;;;;;;8.40;6.10;;;18.80;1.00;;;;;;4979030;28;20212;-89
2021/08/13 03:06:57;;;;;;;10.90;7.70;;;18.70;1.00;;;;;;4978163;28;20230;-89
2021/08/13 03:09:23;;;;;;;8.87;6.23;;;18.70;1.00;;;;;;4988269;28;20206;-89
2021/08/13 03:11:50;;;;;;;9.23;6.23;;;18.70;1.00;;;;;;4994651;28;20188;-89
2021/08/13 03:14:16;;;;;;;11.50;7.67;;;18.70;1.00;;;;;;4975676;28;20204;-89
2021/08/13 03:16:43;;;;;;;9.90;6.80;;;18.70;1.00;;;;;;4977699;28;20187;-87
2021/08/13 03:19:10;;;;;;;10.53;6.80;;;18.70;1.00;;;;;;4978466;28;20248;-88
2021/08/13 03:21:36;;;;;;;10.97;7.60;;;18.70;1.00;;;;;;4976088;28;20275;-88
2021/08/13 03:24:02;;;;;;;10.03;7.20;;;18.70;1.00;;;;;;4981045;28;20188;-88
2021/08/13 03:26:28;;;;;;;11.20;6.93;;;;;;;;;;4982478;28;20191;-88
2021/08/13 03:28:54;;;;;;;7.80;6.63;;;18.70;1.00;;;;;;4977554;28;20220;-88
2021/08/13 03:31:36;;;;;;;9.77;6.37;;;18.70;1.00;;;;;;4978117;28;20211;-88
2021/08/13 03:34:03;;;;;;;11.27;7.20;;;18.70;1.00;;;;;;4978402;28;20189;-88
2021/08/13 03:36:29;;;;;;;11.03;7.30;;;18.70;1.00;;;;;;4979595;28;20283;-87
2021/08/13 03:38:56;;;;;;;11.27;6.83;;;18.70;1.00;;;;;;4978667;28;20560;-88
2021/08/13 03:41:21;;;;;;;10.33;7.00;;;18.60;1.00;;;;;;4979420;28;20292;-89
2021/08/13 03:43:47;;;;;;;8.23;6.77;;;18.60;1.00;;;;;;4978182;28;20232;-88
2021/08/13 03:46:13;;;;;;;12.13;7.20;;;18.60;1.00;;;;;;4973200;28;20197;-87
2021/08/13 03:48:38;;;;;;;8.40;6.77;;;18.60;1.00;;;;;;4972678;28;20608;-87
2021/08/13 03:51:04;;;;;;;8.43;6.47;;;18.50;1.00;;;;;;4979239;28;20194;-88
2021/08/13 03:53:30;;;;;;;12.60;6.97;;;18.40;1.00;;;;;;4978833;28;20192;-88
2021/08/13 03:55:55;;;;;;;9.57;6.80;;;18.30;1.00;;;;;;4978203;28;20202;-88
2021/08/13 03:58:21;;;;;;;8.10;6.13;;;18.30;1.00;;;;;;4975546;28;20192;-89
2021/08/13 04:00:46;;;;;;;10.07;6.63;;;18.30;1.00;;;;;;4978489;28;20224;-89
2021/08/13 04:03:12;;;;;;;8.13;6.07;;;18.40;1.00;;;;;;4971068;28;20189;-88
2021/08/13 04:05:38;;;;;;;10.20;6.67;;;18.50;1.00;;;;;;4978309;28;20441;-88
2021/08/13 04:08:04;;;;;;;9.90;6.77;;;18.50;1.00;;;;;;4976983;28;20227;-88
2021/08/13 04:10:30;;;;;;;10.03;6.80;;;18.50;1.00;;;;;;4978263;28;20209;-89
2021/08/13 04:12:55;;;;;;;9.37;6.23;;;18.50;1.00;;;;;;4978213;28;20197;-89
2021/08/13 04:15:21;;;;;;;8.13;6.70;;;18.60;1.00;;;;;;4982620;28;20208;-88
2021/08/13 04:17:48;;;;;;;9.07;6.53;;;18.50;1.00;;;;;;4983053;28;20207;-89
2021/08/13 04:20:14;;;;;;;9.90;6.40;;;18.50;1.00;;;;;;4977389;28;20569;-88
2021/08/13 04:22:40;;;;;;;11.00;6.77;;;18.40;1.00;;;;;;4979969;28;20202;-89
2021/08/13 04:25:06;;;;;;;7.30;6.07;;;18.40;1.00;;;;;;4978123;28;20256;-88
2021/08/13 04:27:32;;;;;;;10.73;6.83;;;18.30;1.00;;;;;;4979504;28;20197;-89
2021/08/13 04:29:57;;;;;;;8.67;6.60;;;18.30;1.00;;;;;;4980594;28;20222;-88
2021/08/13 04:32:23;;;;;;;10.00;6.77;;;18.40;1.00;;;;;;4978920;28;20204;-88
2021/08/13 04:34:49;;;;;;;6.70;5.67;;;18.40;1.00;;;;;;4982123;28;20200;-88
2021/08/13 04:37:14;;;;;;;12.93;7.73;;;18.30;1.00;;;;;;4979867;28;20211;-88
2021/08/13 04:39:40;;;;;;;9.20;6.70;;;18.40;1.00;;;;;;4977593;28;20189;-88
2021/08/13 04:42:05;;;;;;;8.00;6.50;;;18.50;1.00;;;;;;4978228;28;20617;-89
2021/08/13 04:44:31;;;;;;;8.13;5.87;;;18.50;1.00;;;;;;4977630;28;20191;-89
2021/08/13 04:46:57;;;;;;;8.23;6.30;;;18.50;1.00;;;;;;4980700;28;20202;-89
2021/08/13 04:49:22;;;;;;;9.13;6.50;;;18.50;1.00;;;;;;4980021;28;20223;-89
2021/08/13 04:51:48;;;;;;;8.73;6.43;;;18.40;1.00;;;;;;4982353;28;20285;-89
2021/08/13 04:54:14;;;;;;;8.30;6.43;;;18.50;1.00;;;;;;4981490;28;20201;-89
2021/08/13 04:56:39;;;;;;;7.97;6.43;;;18.40;1.00;;;;;;4980025;28;20655;-88
2021/08/13 04:59:06;;;;;;;10.30;6.87;;;;;;;;;;4995215;28;20197;-89
2021/08/13 05:01:32;;;;;;;9.80;6.57;;;;;;;;;;4980462;28;20194;-89
2021/08/13 05:03:58;;;;;;;12.17;6.43;;;;;;;;;;4979839;28;20216;-90
2021/08/13 05:06:24;;;;;;;8.90;7.00;;;;;;;;;;4981723;28;20288;-89
2021/08/13 05:08:50;;;;;;;11.13;7.43;;;;;;;;;;4977523;28;20217;-89
2021/08/13 05:11:16;;;;;;;10.47;6.63;;;;;;;;;;4973072;28;20238;-89
2021/08/13 05:13:42;;;;;;;10.67;6.40;;;18.90;1.00;;;;;;4977420;28;20201;-88
2021/08/13 05:16:08;;;;;;;8.13;6.20;;;18.90;1.00;;;;;;4979917;28;20194;-88
2021/08/13 05:18:34;;;;;;;8.07;6.23;;;18.80;1.00;;;;;;4980599;28;20193;-86
2021/08/13 05:21:00;;;;;;;9.60;6.40;;;18.80;1.00;;;;;;4978880;28;20209;-87
2021/08/13 05:23:26;;;;;;;8.63;6.17;;;18.90;1.00;;;;;;4969823;28;20735;-87
2021/08/13 05:25:52;;;;;;;7.20;5.60;;;;;;;;;;4981959;28;20201;-83
2021/08/13 05:28:18;;;;;;;9.00;6.03;;;;;;;;;;4979940;28;20781;-85
2021/08/13 05:30:44;;;;;;;9.00;6.53;;;19.20;1.00;;;;;;4981417;28;20198;-83
2021/08/13 05:33:09;;;;;;;7.47;6.03;;;19.20;1.00;;;;;;4982040;28;20199;-83
2021/08/13 05:35:37;;;;;;;8.90;6.43;;;18.70;1.00;;;;;;4977110;28;20189;-86
2021/08/13 05:38:04;;;;;;;11.20;6.90;;;19.30;1.00;;;;;;4977100;28;20195;-86
2021/08/13 05:40:30;;;;;;;8.67;5.50;;;19.50;1.00;;;;;;4981218;28;20258;-86
2021/08/13 05:42:56;;;;;;;8.90;6.47;;;19.60;1.00;;;;;;4981270;28;20191;-88
2021/08/13 05:45:23;;;;;;;7.83;6.30;;;19.70;1.00;;;;;;4980771;28;20580;-86
2021/08/13 05:47:48;;;;;;;11.07;6.60;;;19.70;1.00;;;;;;4980430;28;20296;-83
2021/08/13 05:50:16;;;;;;;9.00;6.67;;;19.80;1.00;;;;;;4980466;28;20241;-83
2021/08/13 05:52:45;;;;;;;8.00;7.20;;;19.90;1.00;;;;;;4977390;28;20255;-84
2021/08/13 05:55:12;;;;;;;10.50;6.00;;;20.00;1.00;;;;;;4981178;28;20198;-82
2021/08/13 05:57:38;;;;;;;8.47;5.83;;;20.00;1.00;;;;;;4981034;28;20210;-82
2021/08/13 06:00:05;;;;;;;7.77;6.33;;;20.10;1.00;;;;;;4981047;28;21161;-83
2021/08/13 06:02:31;;;;;;;9.33;6.67;;;;;;;;;;4980664;28;20666;-85
2021/08/13 06:04:58;;;;;;;8.77;5.70;;;20.30;1.00;;;;;;4980193;28;20212;-84
2021/08/13 06:07:24;;;;;;;9.80;6.73;;;20.40;1.00;;;;;;4980110;28;20243;-83
2021/08/13 06:09:50;;;;;;;8.73;6.20;;;20.50;1.00;;;;;;4975154;28;20193;-86
2021/08/13 06:12:16;;;;;;;8.63;5.90;;;;;;;;;;4982515;28;20296;-91
2021/08/13 06:14:42;;;;;;;8.40;6.20;;;20.60;1.00;;;;;;4983025;28;20792;-86
2021/08/13 06:17:07;;;;;;;9.37;6.43;;;20.70;1.00;;;;;;4981632;28;20204;-88
2021/08/13 06:19:33;;;;;;;9.40;6.30;;;20.80;1.00;;;;;;4982409;28;20192;-88
2021/08/13 06:21:59;;;;;;;8.60;6.40;;;20.80;1.00;;;;;;4983608;28;20266;-86
2021/08/13 06:24:26;;;;;;;8.10;6.00;;;20.80;1.00;;;;;;4982457;28;20210;-83
2021/08/13 06:26:52;;;;;;;10.13;6.97;;;20.90;1.00;;;;;;4979139;28;20199;-85
2021/08/13 06:29:20;;;;;;;9.17;6.60;;;21.00;1.00;;;;;;4979237;28;20232;-83
2021/08/13 06:31:47;;;;;;;8.60;6.10;;;21.20;1.00;;;;;;4979131;28;20193;-82
2021/08/13 06:34:13;;;;;;;8.80;6.57;;;21.30;1.00;;;;;;4979863;28;20186;-85
2021/08/13 06:36:38;;;;;;;9.27;6.20;;;21.40;1.00;;;;;;4981717;28;20705;-85
2021/08/13 06:39:04;;;;;;;7.97;5.93;;;21.50;1.00;;;;;;4980641;28;20193;-85
2021/08/13 06:41:30;;;;;;;7.77;6.57;;;21.60;1.00;;;;;;4981161;28;20269;-83
2021/08/13 06:43:55;;;;;;;9.10;6.17;;;21.80;1.00;;;;;;4992007;28;20209;-84
2021/08/13 06:46:21;;;;;;;7.80;6.20;;;21.90;1.00;;;;;;4981969;28;20256;-84
2021/08/13 06:48:47;;;;;;;8.83;7.20;;;22.10;1.00;;;;;;4979764;28;20220;-84
2021/08/13 06:51:12;;;;;;;9.80;6.93;;;22.20;1.00;;;;;;4978666;28;20281;-85
2021/08/13 06:53:38;;;;;;;9.40;6.17;;;22.40;1.00;;;;;;4982230;28;20191;-85
2021/08/13 06:56:04;;;;;;;7.43;6.20;;;22.40;1.00;;;;;;4980923;28;20197;-85
2021/08/13 06:58:29;;;;;;;8.07;6.63;;;22.50;1.00;;;;;;4979896;28;20199;-86
2021/08/13 07:00:55;;;;;;;9.00;6.93;;;22.60;1.00;;;;;;4976317;28;20245;-89
2021/08/13 07:03:21;;;;;;;7.20;6.17;;;22.70;1.00;;;;;;4975290;28;20230;-86
2021/08/13 07:05:47;;;;;;;8.17;5.80;;;22.90;1.00;;;;;;4976273;28;20215;-88
2021/08/13 07:08:13;;;;;;;8.57;6.20;;;23.00;1.00;;;;;;4976940;28;20220;-87
2021/08/13 07:10:41;;;;;;;8.53;6.70;;;23.10;1.00;;;;;;4977427;28;20334;-87
2021/08/13 07:13:06;;;;;;;10.30;7.10;;;23.40;1.00;;;;;;4980277;28;20212;-86
2021/08/13 07:15:32;;;;;;;11.73;6.80;;;23.50;1.00;;;;;;4964383;28;20196;-86
2021/08/13 07:17:58;;;;;;;7.50;6.50;;;23.80;1.00;;;;;;4976814;28;20235;-87
2021/08/13 07:20:24;;;;;;;8.40;6.67;;;23.80;1.00;;;;;;4987688;28;20221;-87
2021/08/13 07:22:50;;;;;;;10.80;6.90;;;23.80;1.00;;;;;;4977482;28;20206;-86
2021/08/13 07:25:16;;;;;;;8.40;6.20;;;23.70;1.00;;;;;;4973006;28;20195;-84
2021/08/13 07:27:42;;;;;;;10.07;6.43;;;23.70;1.00;;;;;;4979046;28;20197;-84
2021/08/13 07:30:08;;;;;;;9.40;7.07;;;23.70;1.00;;;;;;4979355;28;20192;-85
2021/08/13 07:32:34;;;;;;;11.60;6.80;;;23.80;1.00;;;;;;4978297;28;20195;-84
2021/08/13 07:35:00;;;;;;;12.43;6.93;;;23.80;1.00;;;;;;4974109;28;20270;-85
2021/08/13 07:37:25;;;;;;;17.87;7.70;;;24.00;1.00;;;;;;4977712;28;20911;-86
2021/08/13 07:39:51;;;;;;;10.00;7.30;;;24.00;1.00;;;;;;4978482;28;20186;-85
2021/08/13 07:42:17;;;;;;;7.90;6.32;;;24.20;1.00;;;;;;4976246;28;20232;-86
2021/08/13 07:44:43;;;;;;;9.00;6.65;;;24.40;1.00;;;;;;4976124;28;20669;-86
2021/08/13 07:47:09;;;;;;;9.32;6.75;;;24.60;1.00;;;;;;4978121;28;20191;-87
2021/08/13 07:49:35;;;;;;;7.10;6.00;;;24.60;1.00;;;;;;4972887;28;20215;-87
2021/08/13 07:52:00;;;;;;;12.05;6.13;;;24.80;1.00;;;;;;4978614;28;20538;-86
2021/08/13 07:54:26;;;;;;;8.35;6.90;;;24.90;1.00;;;;;;4976682;28;20201;-87
2021/08/13 07:56:52;;;;;;;6.85;6.15;;;25.00;1.00;;;;;;4975784;28;20216;-86
2021/08/13 07:59:19;;;;;;;9.32;6.30;;;25.00;1.00;;;;;;4976610;28;20660;-88
2021/08/13 08:01:45;;;;;;;9.82;6.22;;;25.00;1.00;;;;;;4977380;28;20193;-87
2021/08/13 08:04:11;;;;;;;7.15;5.72;;;25.00;1.00;;;;;;4976386;28;20266;-87
2021/08/13 08:06:37;;;;;;;7.20;6.13;;;25.00;1.00;;;;;;4977317;28;20192;-88
2021/08/13 08:09:03;;;;;;;8.63;6.03;;;25.00;1.00;;;;;;4980308;28;20588;-88
2021/08/13 08:11:28;;;;;;;10.60;6.18;;;25.10;1.00;;;;;;4981109;28;20189;-87
2021/08/13 08:13:54;;;;;;;10.02;6.45;;;25.20;1.00;;;;;;4974623;28;20191;-87
2021/08/13 08:16:20;;;;;;;7.93;6.30;;;25.40;1.00;;;;;;4977945;28;20189;-86
2021/08/13 08:18:46;;;;;;;7.72;6.43;;;25.30;1.00;;;;;;4981432;28;20196;-87
2021/08/13 08:21:12;;;;;;;9.30;6.07;;;25.20;1.00;;;;;;4971563;28;20282;-88
2021/08/13 08:23:38;;;;;;;9.65;6.63;;;;;;;;;;4980867;28;20208;-87
2021/08/13 08:26:04;;;;;;;7.28;6.05;;;24.90;1.00;;;;;;4977053;28;20224;-87
2021/08/13 08:28:30;;;;;;;9.45;5.88;;;24.80;1.00;;;;;;4978798;28;20227;-87
2021/08/13 08:30:55;;;;;;;9.38;6.05;;;25.00;1.00;;;;;;4978396;28;20194;-87
2021/08/13 08:33:21;;;;;;;7.57;5.93;;;;;;;;;;4976785;28;20292;-87
2021/08/13 08:35:48;;;;;;;7.00;5.55;;;25.10;1.00;;;;;;4978345;28;20198;-87
2021/08/13 08:38:13;;;;;;;6.57;5.70;;;25.30;1.00;;;;;;4976104;28;20200;-87
2021/08/13 08:40:39;;;;;;;7.80;5.50;;;25.50;1.00;;;;;;4975725;28;20201;-86
2021/08/13 08:43:11;;;;;;;7.88;5.80;;;25.70;1.00;;;;;;4977977;28;20192;-86
2021/08/13 08:45:39;;;;;;;7.38;5.72;;;25.60;1.00;;;;;;4969454;28;20177;-87
2021/08/13 08:48:07;;;;;;;7.88;5.32;;;25.70;1.00;;;;;;4973302;28;20246;-88
2021/08/13 08:50:35;;;;;;;8.13;5.88;;;25.70;1.00;;;;;;4977930;28;21222;-88
2021/08/13 08:53:04;;;;;;;8.50;6.20;;;25.90;1.00;;;;;;4977588;28;20181;-88
2021/08/13 08:55:31;;;;;;;7.68;5.90;;;26.00;1.00;;;;;;4977694;28;20203;-88
2021/08/13 08:57:58;;;;;;;6.93;6.20;;;26.10;1.00;;;;;;4976839;28;20260;-87
2021/08/13 09:00:24;;;;;;;11.00;6.32;;;26.30;1.00;;;;;;4978917;28;20193;-87
2021/08/13 09:02:50;;;;;;;5.97;5.38;;;26.30;1.00;;;;;;4982636;28;20216;-86
2021/08/13 09:05:16;;;;;;;9.23;5.97;;;26.30;1.00;;;;;;4980410;28;20224;-86
2021/08/13 09:07:42;;;;;;;7.25;5.65;;;26.30;1.00;;;;;;4982455;28;20252;-87
2021/08/13 09:10:12;;;;;;;6.13;5.53;;;26.20;1.00;;;;;;4981445;28;20544;-86
2021/08/13 09:12:40;;;;;;;7.05;5.85;;;26.40;1.00;;;;;;4980166;28;20192;-86
2021/08/13 09:15:31;;;;;;;6.68;5.88;;;26.60;1.00;;;;;;4981996;28;20189;-86
2021/08/13 09:18:11;;;;;;;7.55;5.72;;;26.70;1.00;;;;;;4976518;28;20189;-87
2021/08/13 09:20:38;;;;;;;8.10;6.13;;;26.90;1.00;;;;;;4979084;28;20196;-86
2021/08/13 09:23:04;;;;;;;6.97;5.57;;;26.90;1.00;;;;;;4981012;28;20193;-86
2021/08/13 09:25:31;;;;;;;8.30;6.05;;;26.90;1.00;;;;;;4982774;28;20200;-85
2021/08/13 09:27:56;;;;;;;7.10;6.10;;;26.80;1.00;;;;;;4981679;28;20213;-85
2021/08/13 09:30:23;;;;;;;7.72;6.10;;;;;;;;;;4991006;28;20211;-86
2021/08/13 09:33:07;;;;;;;9.80;6.50;;;26.70;1.00;;;;;;4980702;28;20231;-87
2021/08/13 09:35:39;;;;;;;9.27;5.78;;;26.80;1.00;;;;;;4976297;28;20588;-87
2021/08/13 09:38:14;;;;;;;8.02;6.18;;;26.80;1.00;;;;;;4982044;28;20186;-87
2021/08/13 09:40:45;;;;;;;8.73;5.50;;;27.00;1.00;;;;;;4981424;28;20231;-87
2021/08/13 09:43:11;;;;;;;7.85;5.90;;;27.30;1.00;;;;;;4982439;28;20193;-88
2021/08/13 09:45:38;;;;;;;6.30;5.35;;;;;;;;;;4980142;28;20189;-88
2021/08/13 09:48:05;;;;;;;12.15;6.13;;;27.20;1.00;;;;;;4982662;28;20213;-88
2021/08/13 09:50:36;;;;;;;7.25;5.90;;;27.10;1.00;;;;;;4980265;28;20192;-88
2021/08/13 09:53:19;;;;;;;8.68;5.65;;;27.10;1.00;;;;;;4983828;28;20189;-89
2021/08/13 09:55:46;;;;;;;10.43;6.10;;;27.10;1.00;;;;;;4978183;28;20186;-86
2021/08/13 09:58:24;;;;;;;9.45;5.95;;;27.30;1.00;;;;;;4994675;28;20208;-87
2021/08/13 10:00:50;;;;;;;8.27;6.32;;;27.30;1.00;;;;;;4975709;28;20195;-88
2021/08/13 10:03:17;;;;;;;8.30;5.72;;;27.50;1.00;;;;;;4995216;28;20186;-87
2021/08/13 10:05:43;;;;;;;7.65;5.60;;;27.50;1.00;;;;;;4974529;28;20205;-86
2021/08/13 10:08:09;;;;;;;6.70;5.05;;;27.70;1.00;;;;;;4973111;28;20272;-87
2021/08/13 10:10:42;;;;;;;6.07;4.93;;;27.90;1.00;;;;;;4973045;28;20193;-88
2021/08/13 10:13:10;;;;;;;8.50;6.10;;;28.10;1.00;;;;;;4978075;28;20182;-87
2021/08/13 10:15:43;;;;;;;7.50;6.32;;;28.00;1.00;;;;;;4989004;28;20657;-88
2021/08/13 10:18:12;;;;;;;7.65;5.75;;;28.20;1.00;;;;;;4976630;28;20192;-87
2021/08/13 10:20:43;;;;;;;8.60;6.18;;;28.20;1.00;;;;;;4994288;28;20193;-88
2021/08/13 10:23:09;;;;;;;7.90;6.20;;;28.30;1.00;;;;;;4977425;28;20260;-87
2021/08/13 10:25:35;;;;;;;8.90;5.70;;;28.10;1.00;;;;;;4974924;28;20189;-87
2021/08/13 10:28:01;;;;;;;7.22;5.82;;;28.00;1.00;;;;;;4980513;28;20264;-89
2021/08/13 10:30:27;;;;;;;7.07;5.95;;;28.10;1.00;;;;;;4976560;28;20216;-87
2021/08/13 10:32:56;;;;;;;7.75;5.47;;;28.20;1.00;;;;;;4979722;28;20181;-86
2021/08/13 10:35:49;;;;;;;6.80;5.30;;;28.20;1.00;;;;;;4981186;28;20189;-86
2021/08/13 10:38:16;;;;;;;7.80;6.03;;;28.30;1.00;;;;;;4967178;28;20201;-86
2021/08/13 10:40:42;;;;;;;9.40;5.95;;;28.30;1.00;;;;;;4973892;28;20193;-86
2021/08/13 10:43:08;;;;;;;7.78;6.07;;;28.40;1.00;;;;;;4981146;28;20193;-86
2021/08/13 10:45:36;;;;;;;6.22;5.57;;;28.70;1.00;;;;;;4979901;28;20657;-87
2021/08/13 10:48:08;;;;;;;6.53;5.82;;;28.50;1.00;;;;;;4974850;28;20613;-86
2021/08/13 10:50:35;;;;;;;7.03;5.78;;;28.70;1.00;;;;;;4969747;28;20189;-86
2021/08/13 10:53:01;;;;;;;6.13;5.43;;;28.80;1.00;;;;;;4978545;28;20205;-85
2021/08/13 10:55:42;;;;;;;9.43;6.20;;;28.90;1.00;;;;;;4967647;28;20280;-85
2021/08/13 10:58:09;;;;;;;7.30;5.93;;;28.90;1.00;;;;;;4973016;28;20267;-87
2021/08/13 11:01:12;;;;;;;8.43;5.63;;;29.00;1.00;;;;;;4976855;28;20564;-86
2021/08/13 11:04:06;;;;;;;8.20;5.70;;;29.10;1.00;;;;;;4977892;28;20287;-86
2021/08/13 11:06:38;;;;;;;8.65;6.13;;;29.10;1.00;;;;;;4969387;28;20208;-87
2021/08/13 11:09:04;;;;;;;7.25;5.80;;;29.10;1.00;;;;;;4972024;28;20233;-87
2021/08/13 11:11:52;;;;;;;7.18;5.85;;;29.10;1.00;;;;;;4976861;28;20239;-89
2021/08/13 11:14:44;;;;;;;7.05;5.68;;;29.20;1.00;;;;;;4990860;28;20193;-86
2021/08/13 11:17:40;;;;;;;7.30;5.90;;;29.50;1.00;;;;;;4980330;28;20189;-88
2021/08/13 11:20:08;;;;;;;7.75;5.80;;;29.40;1.00;;;;;;4986260;28;20295;-87
2021/08/13 11:22:35;;;;;;;6.47;5.25;;;29.80;1.00;;;;;;4977013;28;20256;-87
2021/08/13 11:25:12;;;;;;;6.10;5.50;;;30.00;1.00;;;;;;4974841;28;20278;-87
2021/08/13 11:27:37;;;;;;;7.57;5.95;;;30.10;1.00;;;;;;4979720;28;20188;-87
2021/08/13 11:30:40;;;;;;;7.10;5.32;;;30.30;1.00;;;;;;4977618;28;20220;-88
2021/08/13 11:33:24;;;;;;;6.93;5.95;;;30.60;1.00;;;;;;4986309;28;20654;-88
2021/08/13 11:35:50;;;;;;;6.47;5.28;;;30.60;1.00;;;;;;4976483;28;20196;-87
2021/08/13 11:38:41;;;;;;;8.57;5.78;;;30.80;1.00;;;;;;4976049;28;20220;-87
2021/08/13 11:41:19;;;;;;;6.28;5.57;;;30.60;1.00;;;;;;4973298;28;20189;-86
2021/08/13 11:43:47;;;;;;;7.65;5.82;;;30.60;1.00;;;;;;4977110;28;20189;-87
2021/08/13 11:46:27;;;;;;;6.95;5.45;;;30.80;1.00;;;;;;4979325;28;20188;-87
2021/08/13 11:48:58;;;;;;;7.13;4.90;;;31.30;1.00;;;;;;4974445;28;20696;-87
2021/08/13 11:51:27;;;;;;;5.57;5.07;;;32.00;1.00;;;;;;4978143;28;20224;-86
2021/08/13 11:53:55;;;;;;;6.32;5.38;;;32.90;1.00;;;;;;4978096;28;20189;-85
2021/08/13 11:56:25;;;;;;;8.27;5.35;;;33.80;1.00;;;;;;4975247;28;20287;-86
2021/08/13 11:58:57;;;;;;;5.82;4.82;;;33.80;1.00;;;;;;4977066;28;20196;-88
2021/08/13 12:01:23;;;;;;;7.82;5.13;;;34.20;1.00;;;;;;4977822;28;20208;-86
2021/08/13 12:03:51;;;;;;;7.22;5.15;;;35.60;1.00;;;;;;4978662;28;20565;-86
2021/08/13 12:06:17;;;;;;;8.00;5.03;;;35.60;1.00;;;;;;4978962;28;21274;-87
2021/08/13 12:08:44;;;;;;;6.72;5.32;;;36.30;1.00;;;;;;4976449;28;20216;-86
2021/08/13 12:11:10;;;;;;;6.10;5.28;;;36.90;1.00;;;;;;4975267;28;20583;-86
2021/08/13 12:13:36;;;;;;;6.28;5.18;;;;;;;;;;4975556;28;20189;-86
2021/08/13 12:16:04;;;;;;;8.20;5.50;;;37.40;1.00;;;;;;4995674;28;20181;-87
2021/08/13 12:18:30;;;;;;;5.38;4.60;;;37.40;1.00;;;;;;4981807;28;20229;-87
2021/08/13 12:21:02;;;;;;;4.80;4.30;;;37.80;1.00;;;;;;4977913;28;20277;-88
2021/08/13 12:23:28;;;;;;;5.05;4.55;;;;;;;;;;4979283;28;20588;-88
2021/08/13 12:25:54;;;;;;;5.28;4.60;;;37.80;1.00;;;;;;4976816;28;20189;-86
2021/08/13 12:28:20;;;;;;;6.40;4.80;;;37.80;1.00;;;;;;4991552;28;20221;-87
2021/08/13 12:30:45;;;;;;;5.07;4.43;;;38.10;1.00;;;;;;4977578;28;20213;-85
2021/08/13 12:33:19;;;;;;;5.10;4.60;;;38.80;1.00;;;;;;4977502;28;20263;-86
2021/08/13 12:35:46;;;;;;;5.07;4.50;;;38.40;1.00;;;;;;4981535;28;20624;-85
2021/08/13 12:38:12;;;;;;;5.65;4.70;;;37.60;1.00;;;;;;4980487;28;20270;-84
2021/08/13 12:40:54;;;;;;;6.68;4.85;;;37.30;1.00;;;;;;4976137;28;20272;-85
2021/08/13 12:43:20;;;;;;;4.93;4.53;;;37.10;1.00;;;;;;4981549;28;20272;-85
2021/08/13 12:45:47;;;;;;;4.75;4.32;;;;;;;;;;4982359;28;20555;-85
2021/08/13 12:48:13;;;;;;;5.30;4.68;;;38.40;1.00;;;;;;4982747;28;20224;-85
2021/08/13 12:50:39;;;;;;;6.20;4.40;;;40.20;1.00;;;;;;4981898;28;20212;-85
2021/08/13 12:53:08;;;;;;;5.55;4.40;;;40.20;1.00;;;;;;4977038;28;20213;-87
2021/08/13 12:55:42;;;;;;;5.07;4.28;;;40.30;1.00;;;;;;4974764;28;20218;-85
2021/08/13 12:58:08;;;;;;;5.75;4.45;;;40.20;1.00;;;;;;4979256;28;20212;-86
2021/08/13 13:00:35;;;;;;;6.82;5.18;;;40.10;1.00;;;;;;4979308;28;20254;-86
2021/08/13 13:03:16;;;;;;;4.63;4.13;;;40.20;1.00;;;;;;4981881;28;20185;-86
2021/08/13 13:06:03;;;;;;;6.32;4.93;;;38.70;1.00;;;;;;4978333;28;20816;-86
2021/08/13 13:08:41;;;;;;;5.40;4.90;;;37.30;1.00;;;;;;4981018;28;20209;-87